sensor_id;sensor_type;location;lat;lon;timestamp;P1;durP1;ratioP1;P2;durP2;ratioP2
13228;SDS011;6680;53.220;10.402;2023-03-24T00:01:48;4.33;;;2.40;;
13228;SDS011;6680;53.220;10.402;2023-03-24T00:04:15;4.30;;;2.80;;
13228;SDS011;6680;53.220;10.402;2023-03-24T00:06:42;6.90;;;3.03;;
13228;SDS011;6680;53.220;10.402;2023-03-24T00:09:10;2.50;;;2.30;;
13228;SDS011;6680;53.220;10.402;2023-03-24T00:11:37;2.93;;;2.43;;
13228;SDS011;6680;53.220;10.402;2023-03-24T00:14:04;5.80;;;2.40;;
13228;SDS011;6680;53.220;10.402;2023-03-24T00:16:30;3.03;;;2.73;;
13228;SDS011;6680;53.220;10.402;2023-03-24T00:18:58;3.03;;;2.70;;
13228;SDS011;6680;53.220;10.402;2023-03-24T00:21:25;5.13;;;2.60;;
13228;SDS011;6680;53.220;10.402;2023-03-24T00:23:53;4.43;;;2.80;;
13228;SDS011;6680;53.220;10.402;2023-03-24T00:26:23;4.33;;;2.70;;
13228;SDS011;6680;53.220;10.402;2023-03-24T00:28:50;3.83;;;2.17;;
13228;SDS011;6680;53.220;10.402;2023-03-24T00:31:17;4.40;;;2.97;;
13228;SDS011;6680;53.220;10.402;2023-03-24T00:33:45;3.43;;;2.80;;
13228;SDS011;6680;53.220;10.402;2023-03-24T00:36:14;4.83;;;2.77;;
13228;SDS011;6680;53.220;10.402;2023-03-24T00:38:43;2.63;;;2.43;;
13228;SDS011;6680;53.220;10.402;2023-03-24T00:41:11;5.93;;;2.90;;
13228;SDS011;6680;53.220;10.402;2023-03-24T00:43:43;2.30;;;2.10;;
13228;SDS011;6680;53.220;10.402;2023-03-24T00:46:10;3.37;;;2.80;;
13228;SDS011;6680;53.220;10.402;2023-03-24T00:48:52;4.57;;;2.60;;
13228;SDS011;6680;53.220;10.402;2023-03-24T00:51:21;3.20;;;2.50;;
13228;SDS011;6680;53.220;10.402;2023-03-24T00:53:49;3.53;;;2.40;;
13228;SDS011;6680;53.220;10.402;2023-03-24T00:56:21;2.93;;;2.60;;
13228;SDS011;6680;53.220;10.402;2023-03-24T00:58:51;5.50;;;2.77;;
13228;SDS011;6680;53.220;10.402;2023-03-24T01:01:18;6.27;;;2.87;;
13228;SDS011;6680;53.220;10.402;2023-03-24T01:03:46;4.47;;;3.00;;
13228;SDS011;6680;53.220;10.402;2023-03-24T01:06:14;2.97;;;2.77;;
13228;SDS011;6680;53.220;10.402;2023-03-24T01:08:42;3.47;;;2.67;;
13228;SDS011;6680;53.220;10.402;2023-03-24T01:11:09;4.27;;;2.80;;
13228;SDS011;6680;53.220;10.402;2023-03-24T01:13:37;3.00;;;2.50;;
13228;SDS011;6680;53.220;10.402;2023-03-24T01:16:07;3.07;;;2.57;;
13228;SDS011;6680;53.220;10.402;2023-03-24T01:18:34;4.80;;;2.80;;
13228;SDS011;6680;53.220;10.402;2023-03-24T01:21:04;3.70;;;2.57;;
13228;SDS011;6680;53.220;10.402;2023-03-24T01:23:32;4.23;;;2.90;;
13228;SDS011;6680;53.220;10.402;2023-03-24T01:26:02;3.50;;;2.97;;
13228;SDS011;6680;53.220;10.402;2023-03-24T01:28:30;2.80;;;2.60;;
13228;SDS011;6680;53.220;10.402;2023-03-24T01:30:57;2.33;;;2.13;;
13228;SDS011;6680;53.220;10.402;2023-03-24T01:33:25;2.90;;;2.33;;
13228;SDS011;6680;53.220;10.402;2023-03-24T01:35:52;3.37;;;2.47;;
13228;SDS011;6680;53.220;10.402;2023-03-24T01:38:18;2.40;;;2.20;;
13228;SDS011;6680;53.220;10.402;2023-03-24T01:40:48;3.50;;;2.87;;
13228;SDS011;6680;53.220;10.402;2023-03-24T01:43:17;4.07;;;2.50;;
13228;SDS011;6680;53.220;10.402;2023-03-24T01:48:41;3.47;;;2.57;;
13228;SDS011;6680;53.220;10.402;2023-03-24T01:51:12;2.50;;;2.30;;
13228;SDS011;6680;53.220;10.402;2023-03-24T01:53:42;6.50;;;2.83;;
13228;SDS011;6680;53.220;10.402;2023-03-24T01:56:12;4.47;;;2.77;;
13228;SDS011;6680;53.220;10.402;2023-03-24T01:58:40;4.00;;;2.77;;
13228;SDS011;6680;53.220;10.402;2023-03-24T02:01:12;3.10;;;2.57;;
13228;SDS011;6680;53.220;10.402;2023-03-24T02:03:42;3.53;;;2.87;;
13228;SDS011;6680;53.220;10.402;2023-03-24T02:06:10;7.00;;;2.73;;
13228;SDS011;6680;53.220;10.402;2023-03-24T02:08:39;4.43;;;2.50;;
13228;SDS011;6680;53.220;10.402;2023-03-24T02:11:09;5.80;;;2.83;;
13228;SDS011;6680;53.220;10.402;2023-03-24T02:13:37;4.47;;;2.60;;
13228;SDS011;6680;53.220;10.402;2023-03-24T02:16:16;3.10;;;2.80;;
13228;SDS011;6680;53.220;10.402;2023-03-24T02:18:56;4.63;;;2.93;;
13228;SDS011;6680;53.220;10.402;2023-03-24T02:21:51;3.30;;;3.00;;
13228;SDS011;6680;53.220;10.402;2023-03-24T02:25:06;5.07;;;2.70;;
13228;SDS011;6680;53.220;10.402;2023-03-24T02:28:06;5.50;;;3.10;;
13228;SDS011;6680;53.220;10.402;2023-03-24T02:31:01;2.60;;;2.40;;
13228;SDS011;6680;53.220;10.402;2023-03-24T02:33:57;2.77;;;2.50;;
13228;SDS011;6680;53.220;10.402;2023-03-24T02:36:56;3.50;;;2.63;;
13228;SDS011;6680;53.220;10.402;2023-03-24T02:39:43;3.80;;;3.03;;
13228;SDS011;6680;53.220;10.402;2023-03-24T02:42:31;2.93;;;2.67;;
13228;SDS011;6680;53.220;10.402;2023-03-24T02:45:07;3.63;;;2.93;;
13228;SDS011;6680;53.220;10.402;2023-03-24T02:47:46;3.57;;;3.03;;
13228;SDS011;6680;53.220;10.402;2023-03-24T02:50:20;7.10;;;2.80;;
13228;SDS011;6680;53.220;10.402;2023-03-24T02:52:57;4.33;;;2.90;;
13228;SDS011;6680;53.220;10.402;2023-03-24T02:55:34;3.30;;;2.80;;
13228;SDS011;6680;53.220;10.402;2023-03-24T02:58:06;3.80;;;2.67;;
13228;SDS011;6680;53.220;10.402;2023-03-24T03:00:40;3.93;;;3.00;;
13228;SDS011;6680;53.220;10.402;2023-03-24T03:03:12;3.67;;;3.37;;
13228;SDS011;6680;53.220;10.402;2023-03-24T03:05:45;5.23;;;3.40;;
13228;SDS011;6680;53.220;10.402;2023-03-24T03:08:16;4.33;;;3.03;;
13228;SDS011;6680;53.220;10.402;2023-03-24T03:10:47;3.37;;;3.07;;
13228;SDS011;6680;53.220;10.402;2023-03-24T03:13:17;4.43;;;3.40;;
13228;SDS011;6680;53.220;10.402;2023-03-24T03:15:47;6.97;;;3.00;;
13228;SDS011;6680;53.220;10.402;2023-03-24T03:18:18;6.43;;;3.37;;
13228;SDS011;6680;53.220;10.402;2023-03-24T03:20:52;4.33;;;3.07;;
13228;SDS011;6680;53.220;10.402;2023-03-24T03:23:24;4.20;;;3.10;;
13228;SDS011;6680;53.220;10.402;2023-03-24T03:25:57;3.23;;;2.93;;
13228;SDS011;6680;53.220;10.402;2023-03-24T03:28:30;3.40;;;3.10;;
13228;SDS011;6680;53.220;10.402;2023-03-24T03:30:59;4.70;;;3.10;;
13228;SDS011;6680;53.220;10.402;2023-03-24T03:33:32;4.27;;;3.20;;
13228;SDS011;6680;53.220;10.402;2023-03-24T03:36:03;4.10;;;2.87;;
13228;SDS011;6680;53.220;10.402;2023-03-24T03:38:34;4.77;;;3.27;;
13228;SDS011;6680;53.220;10.402;2023-03-24T03:41:11;5.80;;;3.50;;
13228;SDS011;6680;53.220;10.402;2023-03-24T03:43:40;5.87;;;3.60;;
13228;SDS011;6680;53.220;10.402;2023-03-24T03:46:07;5.17;;;2.83;;
13228;SDS011;6680;53.220;10.402;2023-03-24T03:48:34;4.03;;;3.27;;
13228;SDS011;6680;53.220;10.402;2023-03-24T03:51:01;3.40;;;2.50;;
13228;SDS011;6680;53.220;10.402;2023-03-24T03:53:30;3.30;;;3.00;;
13228;SDS011;6680;53.220;10.402;2023-03-24T03:56:02;4.77;;;3.20;;
13228;SDS011;6680;53.220;10.402;2023-03-24T03:58:31;3.03;;;2.73;;
13228;SDS011;6680;53.220;10.402;2023-03-24T04:00:58;4.27;;;2.90;;
13228;SDS011;6680;53.220;10.402;2023-03-24T04:03:29;4.53;;;3.10;;
13228;SDS011;6680;53.220;10.402;2023-03-24T04:06:09;4.23;;;3.20;;
13228;SDS011;6680;53.220;10.402;2023-03-24T04:08:45;3.47;;;2.70;;
13228;SDS011;6680;53.220;10.402;2023-03-24T04:11:21;3.63;;;2.97;;
13228;SDS011;6680;53.220;10.402;2023-03-24T04:14:01;4.10;;;2.83;;
13228;SDS011;6680;53.220;10.402;2023-03-24T04:16:47;3.43;;;3.13;;
13228;SDS011;6680;53.220;10.402;2023-03-24T04:19:29;4.50;;;2.80;;
13228;SDS011;6680;53.220;10.402;2023-03-24T04:22:09;4.13;;;3.20;;
13228;SDS011;6680;53.220;10.402;2023-03-24T04:24:49;3.43;;;3.03;;
13228;SDS011;6680;53.220;10.402;2023-03-24T04:27:22;4.03;;;2.73;;
13228;SDS011;6680;53.220;10.402;2023-03-24T04:30:04;4.47;;;3.03;;
13228;SDS011;6680;53.220;10.402;2023-03-24T04:32:41;3.07;;;2.77;;
13228;SDS011;6680;53.220;10.402;2023-03-24T04:35:13;5.27;;;2.67;;
13228;SDS011;6680;53.220;10.402;2023-03-24T04:37:55;3.60;;;3.30;;
13228;SDS011;6680;53.220;10.402;2023-03-24T04:40:26;4.93;;;3.00;;
13228;SDS011;6680;53.220;10.402;2023-03-24T04:42:57;5.07;;;3.30;;
13228;SDS011;6680;53.220;10.402;2023-03-24T04:45:29;4.73;;;2.80;;
13228;SDS011;6680;53.220;10.402;2023-03-24T04:47:58;3.13;;;2.83;;
13228;SDS011;6680;53.220;10.402;2023-03-24T04:50:28;2.80;;;2.50;;
13228;SDS011;6680;53.220;10.402;2023-03-24T04:52:56;2.90;;;2.57;;
13228;SDS011;6680;53.220;10.402;2023-03-24T04:55:28;2.90;;;2.67;;
13228;SDS011;6680;53.220;10.402;2023-03-24T04:58:04;2.87;;;2.50;;
13228;SDS011;6680;53.220;10.402;2023-03-24T05:00:32;3.63;;;2.90;;
13228;SDS011;6680;53.220;10.402;2023-03-24T05:03:01;3.10;;;2.80;;
13228;SDS011;6680;53.220;10.402;2023-03-24T05:05:27;3.57;;;2.67;;
13228;SDS011;6680;53.220;10.402;2023-03-24T05:07:54;2.40;;;2.20;;
13228;SDS011;6680;53.220;10.402;2023-03-24T05:10:21;3.23;;;2.63;;
13228;SDS011;6680;53.220;10.402;2023-03-24T05:12:47;3.23;;;2.63;;
13228;SDS011;6680;53.220;10.402;2023-03-24T05:15:14;2.77;;;2.23;;
13228;SDS011;6680;53.220;10.402;2023-03-24T05:17:43;3.10;;;2.70;;
13228;SDS011;6680;53.220;10.402;2023-03-24T05:20:10;2.93;;;2.40;;
13228;SDS011;6680;53.220;10.402;2023-03-24T05:22:39;2.70;;;2.50;;
13228;SDS011;6680;53.220;10.402;2023-03-24T05:25:06;2.40;;;2.20;;
13228;SDS011;6680;53.220;10.402;2023-03-24T05:27:33;5.37;;;2.57;;
13228;SDS011;6680;53.220;10.402;2023-03-24T05:30:00;2.87;;;2.40;;
13228;SDS011;6680;53.220;10.402;2023-03-24T05:32:26;2.97;;;2.40;;
13228;SDS011;6680;53.220;10.402;2023-03-24T05:34:54;2.83;;;2.47;;
13228;SDS011;6680;53.220;10.402;2023-03-24T05:37:21;2.43;;;2.23;;
13228;SDS011;6680;53.220;10.402;2023-03-24T05:39:48;3.20;;;2.70;;
13228;SDS011;6680;53.220;10.402;2023-03-24T05:42:15;2.73;;;2.53;;
13228;SDS011;6680;53.220;10.402;2023-03-24T05:44:42;3.17;;;2.87;;
13228;SDS011;6680;53.220;10.402;2023-03-24T05:47:09;3.00;;;2.67;;
13228;SDS011;6680;53.220;10.402;2023-03-24T05:49:40;2.70;;;2.47;;
13228;SDS011;6680;53.220;10.402;2023-03-24T05:52:08;5.00;;;2.87;;
13228;SDS011;6680;53.220;10.402;2023-03-24T05:54:35;3.90;;;2.97;;
13228;SDS011;6680;53.220;10.402;2023-03-24T05:57:04;4.33;;;2.83;;
13228;SDS011;6680;53.220;10.402;2023-03-24T05:59:32;2.63;;;2.43;;
13228;SDS011;6680;53.220;10.402;2023-03-24T06:01:58;3.03;;;2.63;;
13228;SDS011;6680;53.220;10.402;2023-03-24T06:04:25;2.93;;;2.70;;
13228;SDS011;6680;53.220;10.402;2023-03-24T06:06:54;3.40;;;3.10;;
13228;SDS011;6680;53.220;10.402;2023-03-24T06:09:24;2.83;;;2.53;;
13228;SDS011;6680;53.220;10.402;2023-03-24T06:11:52;2.43;;;2.23;;
13228;SDS011;6680;53.220;10.402;2023-03-24T06:14:22;2.43;;;2.23;;
13228;SDS011;6680;53.220;10.402;2023-03-24T06:16:49;3.13;;;2.70;;
13228;SDS011;6680;53.220;10.402;2023-03-24T06:19:17;3.83;;;3.43;;
13228;SDS011;6680;53.220;10.402;2023-03-24T06:21:46;2.57;;;2.37;;
13228;SDS011;6680;53.220;10.402;2023-03-24T06:24:14;2.53;;;2.33;;
13228;SDS011;6680;53.220;10.402;2023-03-24T06:26:43;5.93;;;2.90;;
13228;SDS011;6680;53.220;10.402;2023-03-24T06:29:10;3.20;;;2.90;;
13228;SDS011;6680;53.220;10.402;2023-03-24T06:31:37;2.83;;;2.63;;
13228;SDS011;6680;53.220;10.402;2023-03-24T06:34:04;3.70;;;2.90;;
13228;SDS011;6680;53.220;10.402;2023-03-24T06:36:31;3.20;;;2.80;;
13228;SDS011;6680;53.220;10.402;2023-03-24T06:38:58;3.60;;;3.07;;
13228;SDS011;6680;53.220;10.402;2023-03-24T06:41:26;5.93;;;3.03;;
13228;SDS011;6680;53.220;10.402;2023-03-24T06:43:54;3.77;;;2.90;;
13228;SDS011;6680;53.220;10.402;2023-03-24T06:46:21;3.60;;;3.30;;
13228;SDS011;6680;53.220;10.402;2023-03-24T06:48:48;3.07;;;2.77;;
13228;SDS011;6680;53.220;10.402;2023-03-24T06:51:15;7.33;;;3.10;;
13228;SDS011;6680;53.220;10.402;2023-03-24T06:53:42;3.63;;;3.33;;
13228;SDS011;6680;53.220;10.402;2023-03-24T06:56:09;3.40;;;3.10;;
13228;SDS011;6680;53.220;10.402;2023-03-24T06:58:40;4.00;;;3.60;;
13228;SDS011;6680;53.220;10.402;2023-03-24T07:01:08;5.20;;;3.23;;
13228;SDS011;6680;53.220;10.402;2023-03-24T07:03:35;3.47;;;3.17;;
13228;SDS011;6680;53.220;10.402;2023-03-24T07:06:02;3.50;;;3.10;;
13228;SDS011;6680;53.220;10.402;2023-03-24T07:08:31;3.40;;;3.10;;
13228;SDS011;6680;53.220;10.402;2023-03-24T07:10:59;3.90;;;3.23;;
13228;SDS011;6680;53.220;10.402;2023-03-24T07:13:27;5.70;;;3.10;;
13228;SDS011;6680;53.220;10.402;2023-03-24T07:15:54;3.90;;;3.27;;
13228;SDS011;6680;53.220;10.402;2023-03-24T07:18:22;5.03;;;3.30;;
13228;SDS011;6680;53.220;10.402;2023-03-24T07:20:50;5.00;;;3.00;;
13228;SDS011;6680;53.220;10.402;2023-03-24T07:23:16;3.27;;;2.97;;
13228;SDS011;6680;53.220;10.402;2023-03-24T07:25:43;3.30;;;3.00;;
13228;SDS011;6680;53.220;10.402;2023-03-24T07:28:10;3.13;;;2.60;;
13228;SDS011;6680;53.220;10.402;2023-03-24T07:30:38;3.43;;;3.13;;
13228;SDS011;6680;53.220;10.402;2023-03-24T07:33:05;2.53;;;2.33;;
13228;SDS011;6680;53.220;10.402;2023-03-24T07:35:35;3.10;;;2.90;;
13228;SDS011;6680;53.220;10.402;2023-03-24T07:38:02;3.03;;;2.77;;
13228;SDS011;6680;53.220;10.402;2023-03-24T07:40:29;4.10;;;2.77;;
13228;SDS011;6680;53.220;10.402;2023-03-24T07:42:59;2.63;;;2.43;;
13228;SDS011;6680;53.220;10.402;2023-03-24T07:45:27;2.40;;;2.20;;
13228;SDS011;6680;53.220;10.402;2023-03-24T07:47:54;3.47;;;2.67;;
13228;SDS011;6680;53.220;10.402;2023-03-24T07:50:25;3.00;;;2.70;;
13228;SDS011;6680;53.220;10.402;2023-03-24T07:52:54;2.40;;;2.20;;
13228;SDS011;6680;53.220;10.402;2023-03-24T07:55:21;2.63;;;2.43;;
13228;SDS011;6680;53.220;10.402;2023-03-24T07:57:48;5.47;;;2.17;;
13228;SDS011;6680;53.220;10.402;2023-03-24T08:00:17;2.60;;;1.80;;
13228;SDS011;6680;53.220;10.402;2023-03-24T08:02:46;2.53;;;2.33;;
13228;SDS011;6680;53.220;10.402;2023-03-24T08:05:14;2.30;;;2.10;;
13228;SDS011;6680;53.220;10.402;2023-03-24T08:07:44;1.77;;;1.67;;
13228;SDS011;6680;53.220;10.402;2023-03-24T08:10:15;1.97;;;1.87;;
13228;SDS011;6680;53.220;10.402;2023-03-24T08:12:42;2.07;;;1.60;;
13228;SDS011;6680;53.220;10.402;2023-03-24T08:15:09;1.90;;;1.80;;
13228;SDS011;6680;53.220;10.402;2023-03-24T08:17:37;1.60;;;1.50;;
13228;SDS011;6680;53.220;10.402;2023-03-24T08:20:04;2.63;;;1.90;;
13228;SDS011;6680;53.220;10.402;2023-03-24T08:22:34;2.10;;;1.40;;
13228;SDS011;6680;53.220;10.402;2023-03-24T08:25:02;4.63;;;1.80;;
13228;SDS011;6680;53.220;10.402;2023-03-24T08:27:31;2.63;;;2.07;;
13228;SDS011;6680;53.220;10.402;2023-03-24T08:29:57;2.23;;;1.77;;
13228;SDS011;6680;53.220;10.402;2023-03-24T08:32:24;2.43;;;1.97;;
13228;SDS011;6680;53.220;10.402;2023-03-24T08:34:51;4.93;;;1.97;;
13228;SDS011;6680;53.220;10.402;2023-03-24T08:37:18;3.57;;;2.13;;
13228;SDS011;6680;53.220;10.402;2023-03-24T08:39:45;2.13;;;1.50;;
13228;SDS011;6680;53.220;10.402;2023-03-24T08:42:12;2.13;;;1.80;;
13228;SDS011;6680;53.220;10.402;2023-03-24T08:44:40;3.67;;;1.50;;
13228;SDS011;6680;53.220;10.402;2023-03-24T08:47:06;2.00;;;1.63;;
13228;SDS011;6680;53.220;10.402;2023-03-24T08:49:33;1.57;;;1.47;;
13228;SDS011;6680;53.220;10.402;2023-03-24T08:52:00;2.47;;;1.80;;
13228;SDS011;6680;53.220;10.402;2023-03-24T08:54:26;1.63;;;1.53;;
13228;SDS011;6680;53.220;10.402;2023-03-24T08:56:53;2.40;;;1.87;;
13228;SDS011;6680;53.220;10.402;2023-03-24T08:59:20;4.30;;;1.70;;
13228;SDS011;6680;53.220;10.402;2023-03-24T09:01:48;2.10;;;1.90;;
13228;SDS011;6680;53.220;10.402;2023-03-24T09:04:15;1.97;;;1.60;;
13228;SDS011;6680;53.220;10.402;2023-03-24T09:06:42;2.30;;;2.10;;
13228;SDS011;6680;53.220;10.402;2023-03-24T09:09:09;2.33;;;1.70;;
13228;SDS011;6680;53.220;10.402;2023-03-24T09:11:35;2.00;;;1.90;;
13228;SDS011;6680;53.220;10.402;2023-03-24T09:14:02;2.23;;;2.00;;
13228;SDS011;6680;53.220;10.402;2023-03-24T09:16:29;3.83;;;1.90;;
13228;SDS011;6680;53.220;10.402;2023-03-24T09:18:57;2.77;;;1.87;;
13228;SDS011;6680;53.220;10.402;2023-03-24T09:21:24;8.07;;;2.13;;
13228;SDS011;6680;53.220;10.402;2023-03-24T09:23:51;1.60;;;1.50;;
13228;SDS011;6680;53.220;10.402;2023-03-24T09:26:18;4.13;;;2.10;;
13228;SDS011;6680;53.220;10.402;2023-03-24T09:28:45;2.53;;;1.70;;
13228;SDS011;6680;53.220;10.402;2023-03-24T09:31:12;3.80;;;2.30;;
13228;SDS011;6680;53.220;10.402;2023-03-24T09:33:38;3.33;;;1.90;;
13228;SDS011;6680;53.220;10.402;2023-03-24T09:36:08;6.50;;;2.50;;
13228;SDS011;6680;53.220;10.402;2023-03-24T09:38:35;1.80;;;1.70;;
13228;SDS011;6680;53.220;10.402;2023-03-24T09:41:02;3.10;;;1.67;;
13228;SDS011;6680;53.220;10.402;2023-03-24T09:43:30;3.40;;;1.63;;
13228;SDS011;6680;53.220;10.402;2023-03-24T09:46:03;2.20;;;2.00;;
13228;SDS011;6680;53.220;10.402;2023-03-24T09:48:37;5.73;;;2.37;;
13228;SDS011;6680;53.220;10.402;2023-03-24T09:51:09;2.10;;;1.70;;
13228;SDS011;6680;53.220;10.402;2023-03-24T09:53:41;3.60;;;1.90;;
13228;SDS011;6680;53.220;10.402;2023-03-24T09:56:15;7.57;;;1.80;;
13228;SDS011;6680;53.220;10.402;2023-03-24T09:58:45;2.33;;;2.00;;
13228;SDS011;6680;53.220;10.402;2023-03-24T10:01:15;2.40;;;1.90;;
13228;SDS011;6680;53.220;10.402;2023-03-24T10:03:43;3.20;;;2.00;;
13228;SDS011;6680;53.220;10.402;2023-03-24T10:06:14;1.77;;;1.67;;
13228;SDS011;6680;53.220;10.402;2023-03-24T10:08:46;2.97;;;1.87;;
13228;SDS011;6680;53.220;10.402;2023-03-24T10:11:18;2.10;;;1.77;;
13228;SDS011;6680;53.220;10.402;2023-03-24T10:13:53;2.63;;;1.97;;
13228;SDS011;6680;53.220;10.402;2023-03-24T10:16:31;5.63;;;1.93;;
13228;SDS011;6680;53.220;10.402;2023-03-24T10:19:14;4.70;;;2.10;;
13228;SDS011;6680;53.220;10.402;2023-03-24T10:21:55;5.70;;;1.93;;
13228;SDS011;6680;53.220;10.402;2023-03-24T10:24:31;5.07;;;2.23;;
13228;SDS011;6680;53.220;10.402;2023-03-24T10:27:04;3.37;;;2.20;;
13228;SDS011;6680;53.220;10.402;2023-03-24T10:29:37;1.70;;;1.40;;
13228;SDS011;6680;53.220;10.402;2023-03-24T10:32:09;5.67;;;1.83;;
13228;SDS011;6680;53.220;10.402;2023-03-24T10:34:41;5.17;;;1.93;;
13228;SDS011;6680;53.220;10.402;2023-03-24T10:37:11;3.77;;;2.17;;
13228;SDS011;6680;53.220;10.402;2023-03-24T10:39:40;4.53;;;2.17;;
13228;SDS011;6680;53.220;10.402;2023-03-24T10:42:08;3.17;;;1.90;;
13228;SDS011;6680;53.220;10.402;2023-03-24T10:44:40;2.30;;;1.67;;
13228;SDS011;6680;53.220;10.402;2023-03-24T10:47:08;4.13;;;2.00;;
13228;SDS011;6680;53.220;10.402;2023-03-24T10:49:38;2.73;;;1.60;;
13228;SDS011;6680;53.220;10.402;2023-03-24T10:52:19;3.57;;;1.77;;
13228;SDS011;6680;53.220;10.402;2023-03-24T10:54:52;1.93;;;1.70;;
13228;SDS011;6680;53.220;10.402;2023-03-24T10:57:21;5.60;;;2.20;;
13228;SDS011;6680;53.220;10.402;2023-03-24T10:59:50;2.07;;;1.70;;
13228;SDS011;6680;53.220;10.402;2023-03-24T11:02:21;4.47;;;2.27;;
13228;SDS011;6680;53.220;10.402;2023-03-24T11:04:52;2.23;;;1.70;;
13228;SDS011;6680;53.220;10.402;2023-03-24T11:07:24;4.33;;;2.17;;
13228;SDS011;6680;53.220;10.402;2023-03-24T11:09:57;2.90;;;2.37;;
13228;SDS011;6680;53.220;10.402;2023-03-24T11:12:27;2.07;;;1.80;;
13228;SDS011;6680;53.220;10.402;2023-03-24T11:15:03;2.00;;;1.40;;
13228;SDS011;6680;53.220;10.402;2023-03-24T11:17:41;6.63;;;2.30;;
13228;SDS011;6680;53.220;10.402;2023-03-24T11:20:14;5.90;;;1.80;;
13228;SDS011;6680;53.220;10.402;2023-03-24T11:22:49;3.43;;;1.60;;
13228;SDS011;6680;53.220;10.402;2023-03-24T11:25:24;3.43;;;2.43;;
13228;SDS011;6680;53.220;10.402;2023-03-24T11:27:51;2.37;;;1.90;;
13228;SDS011;6680;53.220;10.402;2023-03-24T11:30:22;9.30;;;2.10;;
13228;SDS011;6680;53.220;10.402;2023-03-24T11:32:48;4.00;;;2.10;;
13228;SDS011;6680;53.220;10.402;2023-03-24T11:35:16;2.87;;;2.23;;
13228;SDS011;6680;53.220;10.402;2023-03-24T11:37:43;4.30;;;2.20;;
13228;SDS011;6680;53.220;10.402;2023-03-24T11:40:19;3.37;;;1.87;;
13228;SDS011;6680;53.220;10.402;2023-03-24T11:42:49;6.90;;;2.47;;
13228;SDS011;6680;53.220;10.402;2023-03-24T11:45:20;4.07;;;1.80;;
13228;SDS011;6680;53.220;10.402;2023-03-24T11:47:50;5.73;;;2.20;;
13228;SDS011;6680;53.220;10.402;2023-03-24T11:50:19;4.23;;;2.10;;
13228;SDS011;6680;53.220;10.402;2023-03-24T11:52:51;2.97;;;1.87;;
13228;SDS011;6680;53.220;10.402;2023-03-24T11:55:24;4.10;;;2.00;;
13228;SDS011;6680;53.220;10.402;2023-03-24T11:57:58;3.00;;;1.80;;
13228;SDS011;6680;53.220;10.402;2023-03-24T12:00:28;2.03;;;1.83;;
13228;SDS011;6680;53.220;10.402;2023-03-24T12:03:03;4.80;;;1.87;;
13228;SDS011;6680;53.220;10.402;2023-03-24T12:05:51;2.27;;;1.90;;
13228;SDS011;6680;53.220;10.402;2023-03-24T12:11:15;5.87;;;2.37;;
13228;SDS011;6680;53.220;10.402;2023-03-24T12:13:47;1.70;;;1.60;;
13228;SDS011;6680;53.220;10.402;2023-03-24T12:16:21;6.27;;;2.33;;
13228;SDS011;6680;53.220;10.402;2023-03-24T12:22:02;4.43;;;1.90;;
13228;SDS011;6680;53.220;10.402;2023-03-24T12:24:47;2.73;;;2.00;;
13228;SDS011;6680;53.220;10.402;2023-03-24T12:27:33;4.17;;;2.10;;
13228;SDS011;6680;53.220;10.402;2023-03-24T12:30:09;5.13;;;2.10;;
13228;SDS011;6680;53.220;10.402;2023-03-24T12:32:49;6.93;;;2.33;;
13228;SDS011;6680;53.220;10.402;2023-03-24T12:35:27;5.50;;;2.80;;
13228;SDS011;6680;53.220;10.402;2023-03-24T12:38:07;3.43;;;2.27;;
13228;SDS011;6680;53.220;10.402;2023-03-24T12:40:51;4.60;;;2.50;;
13228;SDS011;6680;53.220;10.402;2023-03-24T12:43:31;5.33;;;2.50;;
13228;SDS011;6680;53.220;10.402;2023-03-24T12:46:05;3.10;;;2.40;;
13228;SDS011;6680;53.220;10.402;2023-03-24T12:48:48;4.47;;;2.10;;
13228;SDS011;6680;53.220;10.402;2023-03-24T12:51:24;5.30;;;2.03;;
13228;SDS011;6680;53.220;10.402;2023-03-24T12:53:59;3.43;;;2.07;;
13228;SDS011;6680;53.220;10.402;2023-03-24T12:56:34;5.97;;;2.27;;
13228;SDS011;6680;53.220;10.402;2023-03-24T12:59:09;3.83;;;2.20;;
13228;SDS011;6680;53.220;10.402;2023-03-24T13:01:40;4.23;;;2.33;;
13228;SDS011;6680;53.220;10.402;2023-03-24T13:04:10;5.40;;;2.13;;
13228;SDS011;6680;53.220;10.402;2023-03-24T13:06:42;4.07;;;2.03;;
13228;SDS011;6680;53.220;10.402;2023-03-24T13:09:16;2.07;;;1.97;;
13228;SDS011;6680;53.220;10.402;2023-03-24T13:11:53;3.33;;;2.20;;
13228;SDS011;6680;53.220;10.402;2023-03-24T13:14:26;4.47;;;2.03;;
13228;SDS011;6680;53.220;10.402;2023-03-24T13:16:59;5.67;;;2.80;;
13228;SDS011;6680;53.220;10.402;2023-03-24T13:19:31;5.43;;;3.43;;
13228;SDS011;6680;53.220;10.402;2023-03-24T13:22:00;14.30;;;7.50;;
13228;SDS011;6680;53.220;10.402;2023-03-24T13:24:31;3.20;;;2.63;;
13228;SDS011;6680;53.220;10.402;2023-03-24T13:26:59;3.53;;;2.00;;
13228;SDS011;6680;53.220;10.402;2023-03-24T13:29:39;5.40;;;2.30;;
13228;SDS011;6680;53.220;10.402;2023-03-24T13:32:27;5.30;;;2.63;;
13228;SDS011;6680;53.220;10.402;2023-03-24T13:34:59;3.70;;;2.23;;
13228;SDS011;6680;53.220;10.402;2023-03-24T13:37:31;3.83;;;2.40;;
13228;SDS011;6680;53.220;10.402;2023-03-24T13:40:04;3.33;;;2.17;;
13228;SDS011;6680;53.220;10.402;2023-03-24T13:42:35;4.77;;;2.27;;
13228;SDS011;6680;53.220;10.402;2023-03-24T13:45:17;2.50;;;1.73;;
13228;SDS011;6680;53.220;10.402;2023-03-24T13:47:49;5.13;;;2.30;;
13228;SDS011;6680;53.220;10.402;2023-03-24T13:50:23;5.70;;;2.50;;
13228;SDS011;6680;53.220;10.402;2023-03-24T13:52:51;5.77;;;2.10;;
13228;SDS011;6680;53.220;10.402;2023-03-24T13:55:19;7.23;;;2.43;;
13228;SDS011;6680;53.220;10.402;2023-03-24T13:57:51;4.63;;;2.47;;
13228;SDS011;6680;53.220;10.402;2023-03-24T14:00:23;2.13;;;2.00;;
13228;SDS011;6680;53.220;10.402;2023-03-24T14:02:52;5.03;;;2.40;;
13228;SDS011;6680;53.220;10.402;2023-03-24T14:05:30;4.13;;;2.07;;
13228;SDS011;6680;53.220;10.402;2023-03-24T14:08:14;2.03;;;1.90;;
13228;SDS011;6680;53.220;10.402;2023-03-24T14:10:43;7.60;;;2.67;;
13228;SDS011;6680;53.220;10.402;2023-03-24T14:19:16;8.93;;;2.50;;
13228;SDS011;6680;53.220;10.402;2023-03-24T14:21:44;3.97;;;2.50;;
13228;SDS011;6680;53.220;10.402;2023-03-24T14:24:20;4.93;;;2.27;;
13228;SDS011;6680;53.220;10.402;2023-03-24T14:26:50;7.87;;;2.33;;
13228;SDS011;6680;53.220;10.402;2023-03-24T14:32:04;3.67;;;2.70;;
13228;SDS011;6680;53.220;10.402;2023-03-24T14:34:33;4.57;;;2.37;;
13228;SDS011;6680;53.220;10.402;2023-03-24T14:37:01;2.63;;;2.20;;
13228;SDS011;6680;53.220;10.402;2023-03-24T14:39:33;2.63;;;2.37;;
13228;SDS011;6680;53.220;10.402;2023-03-24T14:45:04;5.67;;;2.40;;
13228;SDS011;6680;53.220;10.402;2023-03-24T14:47:55;2.70;;;2.20;;
13228;SDS011;6680;53.220;10.402;2023-03-24T14:50:25;3.20;;;2.00;;
13228;SDS011;6680;53.220;10.402;2023-03-24T14:52:54;5.13;;;2.40;;
13228;SDS011;6680;53.220;10.402;2023-03-24T14:55:25;4.43;;;2.40;;
13228;SDS011;6680;53.220;10.402;2023-03-24T14:57:53;5.00;;;2.23;;
13228;SDS011;6680;53.220;10.402;2023-03-24T15:00:23;2.50;;;2.30;;
13228;SDS011;6680;53.220;10.402;2023-03-24T15:02:54;6.03;;;2.10;;
13228;SDS011;6680;53.220;10.402;2023-03-24T15:05:28;2.10;;;1.80;;
13228;SDS011;6680;53.220;10.402;2023-03-24T15:08:10;2.10;;;1.90;;
13228;SDS011;6680;53.220;10.402;2023-03-24T15:10:39;2.73;;;2.13;;
13228;SDS011;6680;53.220;10.402;2023-03-24T15:13:27;6.30;;;2.40;;
13228;SDS011;6680;53.220;10.402;2023-03-24T15:15:57;1.90;;;1.80;;
13228;SDS011;6680;53.220;10.402;2023-03-24T15:18:24;5.63;;;2.43;;
13228;SDS011;6680;53.220;10.402;2023-03-24T15:20:53;2.77;;;2.17;;
13228;SDS011;6680;53.220;10.402;2023-03-24T15:23:21;2.67;;;2.07;;
13228;SDS011;6680;53.220;10.402;2023-03-24T15:25:50;2.67;;;2.47;;
13228;SDS011;6680;53.220;10.402;2023-03-24T15:28:17;2.97;;;2.20;;
13228;SDS011;6680;53.220;10.402;2023-03-24T15:30:47;8.00;;;2.33;;
13228;SDS011;6680;53.220;10.402;2023-03-24T15:33:14;5.97;;;2.90;;